GRZ571 Details

Departure: (PACD)
Arrival: (PAKN)
Route: CDB J115 AKN


Current Weather Information
PACD 191553Z AUTO 22003KT 10SM CLR 07/06 A2998 RMK AO2 SLP152 T00670061 TSNO
PAKN 191554Z 34003KT 4SM BR CLR 04/02 A2996 RMK AO2 SLP146 T00440022